Time;durP1;ratioP1;P1;durP2;ratioP2;P2;SDS_P1;SDS_P2;PMS_P1;PMS_P2;Temp;Humidity;BMP_temperature;BMP_pressure;BME280_temperature;BME280_humidity;BME280_pressure;Samples;Min_cycle;Max_cycle;Signal;HPM_P1;HPM_P2
2022/06/06 00:01:57;;;;;;;26.27;16.40;;;16.70;99.90;;;;;;5075618;28;20197;-68
2022/06/06 00:04:24;;;;;;;20.67;13.75;;;16.70;99.90;;;;;;5076677;28;20169;-68
2022/06/06 00:06:55;;;;;;;19.85;14.63;;;16.70;99.90;;;;;;5076962;28;20226;-69
2022/06/06 00:09:21;;;;;;;20.95;15.30;;;16.70;99.90;;;;;;5076963;28;20727;-70
2022/06/06 00:11:47;;;;;;;25.00;15.90;;;16.70;99.90;;;;;;5076029;28;20205;-69
2022/06/06 00:14:15;;;;;;;25.90;17.10;;;16.70;99.90;;;;;;5077384;28;20318;-68
2022/06/06 00:16:41;;;;;;;27.35;17.35;;;16.70;99.90;;;;;;5076501;28;20640;-69
2022/06/06 00:19:07;;;;;;;30.73;19.17;;;16.70;99.90;;;;;;5075271;28;20581;-68
2022/06/06 00:21:34;;;;;;;28.65;19.38;;;16.70;99.90;;;;;;5077199;28;20186;-69
2022/06/06 00:24:00;;;;;;;33.90;21.33;;;16.70;99.90;;;;;;5077401;28;20177;-69
2022/06/06 00:26:29;;;;;;;30.73;20.10;;;16.70;99.90;;;;;;5077307;28;20166;-69
2022/06/06 00:28:55;;;;;;;32.35;21.27;;;16.60;99.90;;;;;;5077353;28;20673;-69
2022/06/06 00:36:52;;;;;;;36.63;22.25;;;16.40;99.90;;;;;;5077586;28;20165;-68
2022/06/06 00:39:18;;;;;;;34.03;20.52;;;16.40;99.90;;;;;;5075766;28;20206;-67
2022/06/06 00:41:51;;;;;;;37.95;21.55;;;16.40;99.90;;;;;;5076710;28;20190;-67
2022/06/06 00:44:28;;;;;;;38.35;22.42;;;16.30;99.90;;;;;;5076631;28;20181;-69
2022/06/06 00:47:17;;;;;;;33.15;20.27;;;16.30;99.90;;;;;;5077668;28;20157;-69
2022/06/06 00:50:01;;;;;;;40.55;22.50;;;16.30;99.90;;;;;;5076525;28;20181;-69
2022/06/06 00:52:35;;;;;;;37.60;22.17;;;16.20;99.90;;;;;;5075939;28;20674;-67
2022/06/06 00:55:08;;;;;;;33.42;21.05;;;16.20;99.90;;;;;;5076834;28;20162;-69
2022/06/06 00:57:38;;;;;;;38.42;21.98;;;16.10;99.90;;;;;;5075443;28;20182;-69
2022/06/06 01:00:09;;;;;;;38.72;22.92;;;16.10;99.90;;;;;;5076807;28;20212;-69
2022/06/06 01:02:36;;;;;;;35.65;22.60;;;16.00;99.90;;;;;;5076070;28;20713;-69
2022/06/06 01:05:03;;;;;;;34.60;21.40;;;16.00;99.90;;;;;;5074772;28;20208;-69
2022/06/06 01:07:28;;;;;;;36.97;22.20;;;16.00;99.90;;;;;;5073821;28;20184;-69
2022/06/06 01:09:54;;;;;;;36.20;19.67;;;16.00;99.90;;;;;;5074458;28;20177;-68
2022/06/06 01:12:22;;;;;;;36.17;20.75;;;16.00;99.90;;;;;;5075487;28;20189;-66
2022/06/06 01:14:55;;;;;;;31.45;19.38;;;16.00;99.90;;;;;;5074208;28;20569;-67
2022/06/06 01:17:42;;;;;;;36.78;19.48;;;16.00;99.90;;;;;;5076008;28;20178;-68
2022/06/06 01:20:29;;;;;;;30.10;18.80;;;16.00;99.90;;;;;;5076226;28;20190;-69
2022/06/06 01:23:16;;;;;;;29.65;19.63;;;16.00;99.90;;;;;;5075861;28;20162;-69
2022/06/06 01:25:51;;;;;;;34.95;18.52;;;16.00;99.90;;;;;;5076107;28;20158;-67
2022/06/06 01:28:32;;;;;;;30.90;18.67;;;16.00;99.90;;;;;;5075345;28;20172;-67
2022/06/06 01:31:04;;;;;;;31.45;19.10;;;16.00;99.90;;;;;;5075602;28;20594;-68
2022/06/06 01:33:30;;;;;;;28.90;19.42;;;16.00;99.90;;;;;;5075504;28;20166;-67
2022/06/06 01:36:00;;;;;;;32.00;18.98;;;15.90;99.90;;;;;;5075312;28;20256;-68
2022/06/06 01:38:26;;;;;;;36.58;19.85;;;15.90;99.90;;;;;;5075962;28;20201;-69
2022/06/06 01:41:09;;;;;;;34.60;19.50;;;15.90;99.90;;;;;;5074576;28;20198;-69
2022/06/06 01:43:46;;;;;;;32.38;20.10;;;15.90;99.90;;;;;;5075697;28;20609;-67
2022/06/06 01:46:26;;;;;;;34.38;19.35;;;15.90;99.90;;;;;;5075364;28;20673;-66
2022/06/06 01:48:53;;;;;;;33.80;19.35;;;15.80;99.90;;;;;;5075724;28;20164;-69
2022/06/06 01:51:24;;;;;;;34.72;21.60;;;15.80;99.90;;;;;;5075818;28;20194;-69
2022/06/06 01:53:50;;;;;;;37.42;22.15;;;15.80;99.90;;;;;;5074532;28;20189;-69
2022/06/06 01:56:21;;;;;;;37.33;22.45;;;15.70;99.90;;;;;;5075639;28;20234;-69
2022/06/06 01:58:47;;;;;;;38.80;22.95;;;15.80;99.90;;;;;;5075075;28;20189;-70
2022/06/06 02:01:13;;;;;;;34.10;21.23;;;15.70;99.90;;;;;;5073989;28;20568;-69
2022/06/06 02:03:38;;;;;;;42.13;22.83;;;15.70;99.90;;;;;;5074390;28;20224;-69
2022/06/06 02:06:05;;;;;;;38.47;21.67;;;15.70;99.90;;;;;;5075381;28;20196;-70
2022/06/06 02:08:32;;;;;;;38.85;22.60;;;15.70;99.90;;;;;;5073279;28;20196;-68
2022/06/06 02:10:58;;;;;;;40.65;22.33;;;15.70;99.90;;;;;;5073228;28;20204;-67
2022/06/06 02:13:25;;;;;;;34.88;20.80;;;15.70;99.90;;;;;;5074059;28;20178;-70
2022/06/06 02:15:52;;;;;;;40.20;21.40;;;15.70;99.90;;;;;;5076016;28;20637;-70
2022/06/06 02:18:18;;;;;;;38.65;20.88;;;15.70;99.90;;;;;;5074941;28;20174;-68
2022/06/06 02:20:44;;;;;;;36.63;18.20;;;15.60;99.90;;;;;;5073153;28;20227;-68
2022/06/06 02:23:10;;;;;;;35.15;19.10;;;15.60;99.90;;;;;;5074663;28;20178;-67
2022/06/06 02:25:36;;;;;;;33.47;19.83;;;15.60;99.90;;;;;;5074871;28;20177;-67
2022/06/06 02:28:02;;;;;;;35.17;19.30;;;15.60;99.90;;;;;;5074690;28;20526;-68
2022/06/06 02:30:31;;;;;;;30.48;17.52;;;15.50;99.90;;;;;;5075336;28;20178;-68
2022/06/06 02:32:58;;;;;;;31.50;18.02;;;15.50;99.90;;;;;;5076156;28;20182;-69
2022/06/06 02:35:27;;;;;;;30.00;16.83;;;15.50;99.90;;;;;;5074830;28;20185;-69
2022/06/06 02:37:56;;;;;;;32.22;17.42;;;15.50;99.90;;;;;;5075965;28;20182;-67
2022/06/06 02:40:23;;;;;;;29.88;17.23;;;15.50;99.90;;;;;;5075694;28;20674;-68
2022/06/06 02:42:49;;;;;;;30.88;18.20;;;15.50;99.90;;;;;;5073622;28;20257;-68
2022/06/06 02:45:15;;;;;;;31.45;18.90;;;15.50;99.90;;;;;;5075885;28;20216;-68
2022/06/06 02:47:44;;;;;;;34.90;19.60;;;15.50;99.90;;;;;;5073878;28;20533;-69
2022/06/06 02:50:10;;;;;;;32.60;19.65;;;15.50;99.90;;;;;;5073055;28;20181;-67
2022/06/06 02:52:38;;;;;;;36.78;20.90;;;15.50;99.90;;;;;;5073076;28;20198;-69
2022/06/06 02:55:06;;;;;;;37.30;21.35;;;15.50;99.90;;;;;;5074497;28;20177;-69
2022/06/06 02:57:40;;;;;;;39.53;21.98;;;15.40;99.90;;;;;;5072461;28;20227;-70
2022/06/06 03:00:08;;;;;;;35.22;20.45;;;15.30;99.90;;;;;;5072549;28;20251;-67
2022/06/06 03:02:35;;;;;;;33.00;19.25;;;15.30;99.90;;;;;;5072342;28;20193;-68
2022/06/06 03:05:03;;;;;;;35.10;19.50;;;15.20;99.90;;;;;;5074387;28;20166;-67
2022/06/06 03:07:48;;;;;;;37.10;20.23;;;15.20;99.90;;;;;;5073816;28;20170;-67
2022/06/06 03:10:27;;;;;;;36.13;18.92;;;15.10;99.90;;;;;;5074024;28;20561;-69
2022/06/06 03:13:10;;;;;;;31.63;18.05;;;15.10;99.90;;;;;;5072137;28;20189;-69
2022/06/06 03:20:46;;;;;;;30.88;18.17;;;15.10;99.90;;;;;;5073765;28;20705;-67
2022/06/06 03:21:49;;;;;;;33.95;19.20;;;15.00;99.90;;;;;;5073398;28;20247;-67
2022/06/06 03:24:29;;;;;;;29.90;17.92;;;15.00;99.90;;;;;;5072286;28;20173;-67
2022/06/06 03:26:58;;;;;;;30.90;16.73;;;15.00;99.90;;;;;;5072333;28;20193;-67
2022/06/06 03:29:51;;;;;;;34.20;19.30;;;15.10;99.90;;;;;;5072049;28;20268;-67
2022/06/06 03:32:44;;;;;;;33.72;17.92;;;15.00;99.90;;;;;;5075728;28;20194;-67
2022/06/06 03:35:38;;;;;;;32.85;18.98;;;15.00;99.90;;;;;;5076616;28;20211;-67
2022/06/06 03:38:21;;;;;;;35.28;17.73;;;15.00;99.90;;;;;;5077588;28;20186;-67
2022/06/06 03:41:03;;;;;;;28.42;16.80;;;15.00;99.90;;;;;;5077702;28;20202;-69
2022/06/06 03:43:47;;;;;;;32.47;18.80;;;15.00;99.90;;;;;;5077225;28;20158;-68
2022/06/06 03:46:40;;;;;;;35.03;18.27;;;15.10;99.90;;;;;;5077670;28;20158;-68
2022/06/06 03:49:25;;;;;;;36.70;19.35;;;15.10;99.90;;;;;;5077651;28;20169;-70
2022/06/06 03:52:08;;;;;;;33.55;18.40;;;15.20;99.90;;;;;;5076192;28;20251;-69
2022/06/06 03:55:02;;;;;;;32.90;18.88;;;15.10;99.90;;;;;;5077370;28;20542;-69
2022/06/06 03:57:28;;;;;;;36.95;20.33;;;15.10;99.90;;;;;;5077389;28;20189;-68
2022/06/06 03:59:56;;;;;;;33.97;18.67;;;15.20;99.90;;;;;;5077236;28;20239;-67
2022/06/06 04:02:31;;;;;;;36.78;20.33;;;15.20;99.90;;;;;;5075794;28;20198;-67
2022/06/06 04:05:01;;;;;;;38.35;20.08;;;15.20;99.90;;;;;;5076113;28;20579;-67
2022/06/06 04:07:27;;;;;;;34.75;19.33;;;15.20;99.90;;;;;;5076235;28;20173;-68
2022/06/06 04:09:53;;;;;;;37.15;20.42;;;15.20;99.90;;;;;;5078061;28;20180;-67
2022/06/06 04:12:28;;;;;;;39.40;20.73;;;15.30;99.90;;;;;;5078593;28;20204;-67
2022/06/06 04:15:02;;;;;;;38.63;19.70;;;15.30;99.90;;;;;;5080888;28;20250;-67
2022/06/06 04:18:02;;;;;;;41.17;21.30;;;15.20;99.90;;;;;;5080480;28;20552;-69
2022/06/06 04:20:36;;;;;;;34.45;19.25;;;15.30;99.90;;;;;;5079494;28;20229;-70
2022/06/06 04:23:15;;;;;;;33.78;18.02;;;15.30;99.90;;;;;;5078785;28;20224;-68
2022/06/06 04:26:13;;;;;;;31.90;18.25;;;15.20;99.90;;;;;;5077504;28;20556;-68
2022/06/06 04:28:52;;;;;;;34.17;18.75;;;15.20;99.90;;;;;;5076917;28;20161;-67
2022/06/06 04:31:36;;;;;;;36.22;19.70;;;15.10;99.90;;;;;;5077016;28;20287;-67
2022/06/06 04:34:17;;;;;;;32.55;17.83;;;15.20;99.90;;;;;;5076591;28;20174;-68
2022/06/06 04:36:52;;;;;;;30.67;16.98;;;15.20;99.90;;;;;;5076648;28;20192;-67
2022/06/06 04:39:35;;;;;;;32.53;17.25;;;15.20;99.90;;;;;;5076473;28;20209;-67
2022/06/06 04:42:23;;;;;;;22.23;15.27;;;15.20;99.90;;;;;;5075105;28;20198;-67
2022/06/06 04:45:15;;;;;;;25.27;15.02;;;15.30;99.90;;;;;;5075725;28;20180;-67
2022/06/06 04:47:42;;;;;;;24.23;13.90;;;15.30;99.90;;;;;;5060057;28;20217;-67
2022/06/06 04:50:12;;;;;;;21.35;13.23;;;15.30;99.90;;;;;;5076289;28;20257;-68
2022/06/06 04:52:41;;;;;;;17.85;11.77;;;15.30;99.90;;;;;;5074939;28;20283;-67
2022/06/06 04:55:10;;;;;;;19.92;12.23;;;15.40;99.90;;;;;;5076245;28;20631;-68
2022/06/06 04:57:40;;;;;;;17.73;11.52;;;15.40;99.90;;;;;;5075979;28;20182;-67
2022/06/06 05:00:07;;;;;;;16.25;11.07;;;15.50;99.90;;;;;;5075773;28;20233;-67
2022/06/06 05:02:35;;;;;;;13.95;9.63;;;15.50;99.90;;;;;;5075622;28;20273;-66
2022/06/06 05:05:01;;;;;;;15.63;9.52;;;15.50;99.90;;;;;;5075661;28;20182;-66
2022/06/06 05:07:48;;;;;;;13.07;8.95;;;15.50;99.90;;;;;;5075876;28;20635;-67
2022/06/06 05:10:52;;;;;;;15.38;8.23;;;15.50;99.90;;;;;;5074352;28;20291;-67
2022/06/06 05:13:44;;;;;;;18.02;9.20;;;15.60;99.90;;;;;;5033076;28;20217;-67
2022/06/06 05:16:37;;;;;;;11.70;8.43;;;15.60;99.90;;;;;;5074157;28;20209;-67
2022/06/06 05:19:05;;;;;;;12.45;8.57;;;15.60;99.90;;;;;;5074039;28;20320;-67
2022/06/06 05:21:52;;;;;;;14.00;8.52;;;15.60;99.90;;;;;;5075137;28;20204;-67
2022/06/06 05:24:27;;;;;;;14.55;9.15;;;15.70;99.90;;;;;;5075261;28;20201;-67
2022/06/06 05:27:25;;;;;;;12.95;8.50;;;15.80;99.90;;;;;;5074097;28;20616;-67
2022/06/06 05:30:02;;;;;;;10.35;7.65;;;15.80;99.90;;;;;;5051933;28;20186;-66
2022/06/06 05:32:37;;;;;;;11.68;7.38;;;15.80;99.90;;;;;;5073582;28;20190;-66
2022/06/06 05:35:23;;;;;;;10.68;6.85;;;15.80;99.90;;;;;;5074821;28;20170;-66
2022/06/06 05:37:58;;;;;;;15.50;7.82;;;15.90;99.90;;;;;;5070583;28;20189;-66
2022/06/06 05:40:23;;;;;;;9.82;6.28;;;15.80;99.90;;;;;;5074377;28;20196;-67
2022/06/06 05:43:04;;;;;;;11.00;7.00;;;15.90;99.90;;;;;;5074380;28;20192;-66
2022/06/06 05:46:11;;;;;;;9.95;7.45;;;15.90;99.90;;;;;;5073149;28;20178;-66
2022/06/06 05:48:55;;;;;;;10.60;7.32;;;15.90;99.90;;;;;;5054055;28;20190;-66
2022/06/06 05:51:39;;;;;;;10.93;6.43;;;16.00;99.90;;;;;;5074589;28;20711;-66
2022/06/06 05:54:20;;;;;;;12.80;6.70;;;16.10;99.90;;;;;;5072285;28;20223;-66
2022/06/06 05:57:00;;;;;;;8.50;6.13;;;16.00;99.90;;;;;;5074257;28;20401;-66
2022/06/06 05:59:44;;;;;;;9.02;6.70;;;15.90;99.90;;;;;;5073939;28;20193;-66
2022/06/06 06:02:50;;;;;;;13.20;7.60;;;15.80;99.90;;;;;;5074174;28;20185;-67
2022/06/06 06:05:31;;;;;;;12.45;6.57;;;15.80;99.90;;;;;;5074592;28;20165;-66
2022/06/06 06:08:22;;;;;;;10.65;6.47;;;15.70;99.90;;;;;;5074088;28;20713;-66
2022/06/06 06:11:08;;;;;;;10.35;6.90;;;15.80;99.90;;;;;;5074539;28;20251;-66
2022/06/06 06:13:49;;;;;;;9.70;6.22;;;15.90;99.90;;;;;;5073830;28;20196;-67
2022/06/06 06:16:17;;;;;;;10.90;6.70;;;16.10;99.90;;;;;;5074153;28;20165;-67
2022/06/06 06:18:52;;;;;;;8.73;5.93;;;16.20;99.90;;;;;;5074271;28;20190;-67
2022/06/06 06:21:23;;;;;;;8.95;5.95;;;16.30;99.90;;;;;;5075275;28;20192;-67
2022/06/06 06:24:06;;;;;;;11.00;6.47;;;16.40;99.90;;;;;;5074906;28;20211;-67
2022/06/06 06:26:34;;;;;;;9.82;6.28;;;16.40;99.90;;;;;;5074442;28;20169;-69
2022/06/06 06:29:04;;;;;;;9.48;5.93;;;16.50;99.90;;;;;;5072747;28;20180;-68
2022/06/06 06:31:50;;;;;;;9.82;5.50;;;16.50;99.90;;;;;;5074073;28;20552;-68
2022/06/06 06:34:44;;;;;;;9.25;5.60;;;16.70;99.90;;;;;;5072900;28;20265;-67
2022/06/06 06:37:36;;;;;;;9.23;5.75;;;16.70;99.90;;;;;;5074087;28;20520;-67
2022/06/06 06:40:19;;;;;;;9.73;5.85;;;16.80;99.90;;;;;;5052304;28;20252;-67
2022/06/06 06:43:18;;;;;;;10.00;5.78;;;16.90;99.90;;;;;;5072499;28;20170;-67
2022/06/06 06:45:56;;;;;;;9.32;5.63;;;16.90;99.90;;;;;;5073425;28;20170;-67
2022/06/06 06:48:31;;;;;;;7.25;5.47;;;17.00;99.90;;;;;;5074785;28;20161;-67
2022/06/06 06:51:13;;;;;;;7.95;5.38;;;17.00;99.90;;;;;;5074421;28;20669;-67
2022/06/06 06:53:57;;;;;;;8.55;5.20;;;16.90;99.90;;;;;;5075208;28;20165;-68
2022/06/06 06:56:54;;;;;;;6.18;5.10;;;17.10;99.90;;;;;;5073848;28;20162;-68
2022/06/06 06:59:38;;;;;;;6.57;5.22;;;17.10;99.90;;;;;;5072448;28;20201;-68
2022/06/06 07:09:03;;;;;;;8.13;5.15;;;17.30;99.90;;;;;;5082480;28;20281;-67
2022/06/06 07:11:32;;;;;;;11.15;4.60;;;17.40;99.90;;;;;;5092854;28;20197;-66
2022/06/06 07:14:12;;;;;;;9.55;5.25;;;17.50;99.90;;;;;;5093237;28;20185;-67
2022/06/06 07:16:40;;;;;;;6.05;4.57;;;17.60;99.90;;;;;;5093592;28;20192;-66
2022/06/06 07:19:12;;;;;;;6.20;4.15;;;17.60;99.90;;;;;;5093739;28;20672;-66
2022/06/06 07:21:41;;;;;;;6.00;4.38;;;17.60;99.90;;;;;;5092154;28;20224;-66
2022/06/06 07:24:14;;;;;;;5.72;4.00;;;17.60;99.90;;;;;;5093494;28;20195;-67
2022/06/06 07:26:43;;;;;;;5.53;4.38;;;17.60;99.90;;;;;;5093398;28;20177;-66
2022/06/06 07:29:12;;;;;;;7.53;4.63;;;17.70;99.90;;;;;;5093100;28;20177;-65
2022/06/06 07:32:21;;;;;;;6.30;3.88;;;17.70;99.90;;;;;;5093332;28;20244;-66
2022/06/06 07:35:03;;;;;;;5.13;3.80;;;17.70;99.90;;;;;;5071358;28;20270;-66
2022/06/06 07:37:50;;;;;;;7.93;4.70;;;17.70;99.90;;;;;;5053286;28;20537;-66
2022/06/06 07:40:50;;;;;;;4.43;3.70;;;17.70;99.90;;;;;;5067283;28;20221;-66
2022/06/06 07:43:49;;;;;;;5.47;4.10;;;17.70;99.90;;;;;;5072791;28;20573;-65
2022/06/06 07:46:33;;;;;;;2.85;2.58;;;17.60;99.90;;;;;;5073346;28;20198;-66
2022/06/06 07:49:05;;;;;;;4.65;3.30;;;17.50;99.90;;;;;;5073100;28;20216;-65
2022/06/06 07:51:36;;;;;;;4.40;3.05;;;17.40;99.90;;;;;;5073622;28;20201;-66
2022/06/06 07:54:12;;;;;;;3.65;3.10;;;17.30;99.90;;;;;;5073535;28;20567;-66
2022/06/06 07:56:46;;;;;;;6.10;3.17;;;17.30;99.90;;;;;;5071644;28;20172;-65
2022/06/06 07:59:24;;;;;;;5.80;2.85;;;17.30;99.90;;;;;;5072521;28;20197;-66
2022/06/06 08:02:21;;;;;;;3.55;3.17;;;17.40;99.90;;;;;;5071683;28;20216;-66
2022/06/06 08:04:52;;;;;;;7.13;3.80;;;17.50;99.90;;;;;;5071934;28;20344;-70
2022/06/06 08:07:34;;;;;;;5.43;3.38;;;17.60;99.90;;;;;;5072811;28;20188;-70
2022/06/06 08:10:27;;;;;;;3.70;3.05;;;17.60;99.90;;;;;;5071504;28;20185;-68
2022/06/06 08:13:05;;;;;;;6.70;3.47;;;17.70;99.90;;;;;;5072490;28;20166;-67
2022/06/06 08:15:44;;;;;;;4.65;3.50;;;17.90;99.90;;;;;;5072595;28;20674;-67
2022/06/06 08:18:30;;;;;;;3.33;3.00;;;18.00;99.90;;;;;;5076211;28;20157;-68
2022/06/06 08:21:13;;;;;;;4.55;3.17;;;18.10;99.90;;;;;;5076573;28;20193;-68
2022/06/06 08:23:41;;;;;;;3.00;2.70;;;18.20;99.90;;;;;;5075008;28;20177;-68
2022/06/06 08:26:08;;;;;;;4.55;3.05;;;18.30;99.90;;;;;;5076429;28;20657;-67
2022/06/06 08:28:39;;;;;;;3.65;2.53;;;18.20;99.90;;;;;;5075871;28;20178;-68
2022/06/06 08:31:06;;;;;;;2.88;2.67;;;18.20;99.90;;;;;;5075971;28;20277;-67
2022/06/06 08:33:33;;;;;;;3.83;2.50;;;18.20;99.90;;;;;;5076189;28;20177;-69
2022/06/06 08:36:40;;;;;;;3.72;2.78;;;18.30;99.90;;;;;;5074768;28;20268;-67
2022/06/06 08:39:21;;;;;;;2.67;2.40;;;18.40;99.90;;;;;;5075825;28;20205;-67
2022/06/06 08:42:08;;;;;;;2.22;2.03;;;18.30;99.90;;;;;;5075959;28;20291;-67
2022/06/06 08:44:48;;;;;;;2.45;2.20;;;18.40;99.90;;;;;;5074294;28;20622;-67
2022/06/06 08:47:30;;;;;;;2.20;1.80;;;18.50;99.90;;;;;;5075827;28;20191;-67
2022/06/06 08:53:11;;;;;;;2.13;1.77;;;18.90;99.90;;;;;;5076006;28;20169;-67
2022/06/06 08:55:49;;;;;;;2.03;1.83;;;19.10;99.90;;;;;;5075694;28;20201;-67
2022/06/06 08:58:43;;;;;;;2.40;1.98;;;19.20;99.90;;;;;;5075280;28;20535;-67
2022/06/06 09:01:37;;;;;;;2.10;1.90;;;19.20;99.90;;;;;;5074144;28;20215;-67
2022/06/06 09:04:51;;;;;;;2.88;1.90;;;19.20;99.90;;;;;;5076310;28;20550;-67
2022/06/06 09:07:59;;;;;;;2.10;1.83;;;19.40;99.90;;;;;;5070628;28;20650;-66
2022/06/06 09:11:02;;;;;;;2.60;2.00;;;19.40;99.90;;;;;;5068125;28;20617;-67
2022/06/06 09:13:52;;;;;;;2.78;1.83;;;19.40;99.90;;;;;;5073786;28;20174;-67
2022/06/06 09:17:07;;;;;;;1.80;1.70;;;19.40;99.90;;;;;;5075574;28;20253;-67
2022/06/06 09:19:39;;;;;;;4.07;1.92;;;19.50;99.90;;;;;;5073986;28;20547;-67
2022/06/06 09:22:16;;;;;;;4.50;2.10;;;19.60;99.90;;;;;;5075305;28;20200;-67
2022/06/06 09:25:19;;;;;;;1.63;1.52;;;19.80;99.90;;;;;;5075278;28;20166;-67
2022/06/06 09:28:16;;;;;;;1.50;1.40;;;20.10;99.90;;;;;;5073337;28;20348;-68
2022/06/06 09:30:54;;;;;;;3.42;1.65;;;20.50;99.90;;;;;;5075152;28;20674;-67
2022/06/06 09:33:35;;;;;;;2.63;1.75;;;20.70;99.90;;;;;;5075340;28;20178;-67
2022/06/06 09:36:19;;;;;;;4.13;1.70;;;20.50;99.90;;;;;;5073731;28;20177;-67
2022/06/06 09:39:24;;;;;;;1.92;1.73;;;20.90;99.90;;;;;;5085081;28;20208;-67
2022/06/06 09:42:27;;;;;;;2.25;1.98;;;20.80;99.90;;;;;;5095383;28;20189;-67
2022/06/06 09:45:05;;;;;;;1.50;1.40;;;20.70;99.90;;;;;;5094715;28;20181;-67
2022/06/06 09:47:55;;;;;;;2.05;1.65;;;20.60;99.90;;;;;;5093882;28;20174;-67
2022/06/06 09:50:59;;;;;;;1.77;1.63;;;20.60;99.90;;;;;;5095279;28;20244;-67
2022/06/06 09:53:27;;;;;;;1.50;1.40;;;20.90;99.90;;;;;;5095046;28;20179;-67
2022/06/06 09:59:33;;;;;;;5.95;1.60;;;21.30;99.90;;;;;;5086994;28;20301;-67
2022/06/06 10:02:27;;;;;;;3.15;1.70;;;21.00;99.90;;;;;;5094953;28;20263;-67
2022/06/06 10:05:04;;;;;;;1.73;1.58;;;20.50;99.90;;;;;;5094877;28;20173;-67
2022/06/06 10:08:06;;;;;;;1.73;1.50;;;20.40;99.90;;;;;;5094818;28;20172;-66
2022/06/06 10:10:57;;;;;;;2.63;1.83;;;20.30;99.90;;;;;;5094742;28;20214;-66
2022/06/06 10:13:40;;;;;;;1.70;1.60;;;20.00;99.90;;;;;;5094421;28;20165;-66
2022/06/06 10:16:44;;;;;;;2.05;1.85;;;19.70;99.90;;;;;;5095182;28;20254;-66
2022/06/06 10:19:16;;;;;;;2.47;1.75;;;19.70;99.90;;;;;;5095399;28;20184;-66
2022/06/06 10:21:55;;;;;;;1.67;1.58;;;19.60;99.90;;;;;;5095507;28;20192;-67
2022/06/06 10:24:45;;;;;;;1.73;1.55;;;19.60;99.90;;;;;;5094278;28;20535;-67
2022/06/06 10:27:29;;;;;;;1.90;1.67;;;19.70;99.90;;;;;;5096174;28;20181;-67
2022/06/06 10:30:22;;;;;;;1.60;1.50;;;19.70;99.90;;;;;;5095142;28;20173;-67
2022/06/06 10:33:10;;;;;;;2.70;1.70;;;19.50;99.90;;;;;;5093822;28;20264;-66
2022/06/06 10:35:48;;;;;;;2.65;1.85;;;19.30;99.90;;;;;;5094537;28;20268;-67
2022/06/06 10:38:38;;;;;;;2.38;1.80;;;19.20;99.90;;;;;;5095242;28;20192;-66
2022/06/06 10:41:46;;;;;;;1.90;1.80;;;18.90;99.90;;;;;;5092879;28;20205;-67
2022/06/06 10:44:30;;;;;;;1.98;1.88;;;18.60;99.90;;;;;;5092933;28;20181;-67
2022/06/06 10:47:17;;;;;;;1.70;1.60;;;18.60;99.90;;;;;;5094533;28;20176;-67
2022/06/06 10:50:08;;;;;;;4.75;1.88;;;18.70;99.90;;;;;;5094407;28;20520;-67
2022/06/06 10:53:11;;;;;;;2.67;1.92;;;19.20;99.90;;;;;;5094032;28;20197;-67
2022/06/06 10:55:56;;;;;;;2.35;2.03;;;19.60;99.90;;;;;;5092672;28;20200;-66
2022/06/06 10:58:33;;;;;;;2.00;1.77;;;19.90;99.90;;;;;;5092400;28;20248;-67
2022/06/06 11:01:35;;;;;;;1.40;1.35;;;20.00;99.90;;;;;;5094085;28;20204;-66
2022/06/06 11:04:29;;;;;;;2.60;1.50;;;20.40;99.90;;;;;;5094412;28;20632;-66
2022/06/06 11:07:31;;;;;;;1.75;1.60;;;20.60;99.90;;;;;;5094016;28;20248;-66
2022/06/06 11:10:35;;;;;;;1.55;1.45;;;21.00;99.90;;;;;;5094373;28;20165;-66
2022/06/06 11:13:32;;;;;;;4.90;1.83;;;21.10;99.90;;;;;;5080511;28;20254;-66
2022/06/06 11:16:32;;;;;;;1.90;1.80;;;20.70;99.90;;;;;;5071589;28;20197;-66
2022/06/06 11:19:03;;;;;;;1.88;1.60;;;20.60;99.90;;;;;;5093989;28;20213;-66
2022/06/06 11:21:32;;;;;;;1.30;1.25;;;20.90;99.90;;;;;;5094029;28;20193;-66
2022/06/06 11:24:31;;;;;;;3.25;1.73;;;21.10;99.90;;;;;;5092453;28;20193;-66
2022/06/06 11:27:06;;;;;;;2.80;1.50;;;21.30;99.90;;;;;;5093653;28;20160;-67
2022/06/06 11:30:04;;;;;;;1.50;1.40;;;21.10;99.90;;;;;;5093251;28;20512;-67
2022/06/06 11:32:48;;;;;;;2.08;1.88;;;20.90;99.90;;;;;;5088516;28;20317;-67
2022/06/06 11:35:41;;;;;;;2.15;1.40;;;20.50;99.90;;;;;;5093699;28;20161;-67
2022/06/06 11:38:53;;;;;;;1.50;1.40;;;20.60;99.90;;;;;;5093444;28;20617;-67
2022/06/06 11:41:22;;;;;;;2.42;1.60;;;20.60;99.90;;;;;;5071006;28;20208;-67
2022/06/06 11:44:23;;;;;;;1.52;1.42;;;20.80;99.90;;;;;;5090863;28;20207;-67
2022/06/06 11:47:19;;;;;;;1.98;1.42;;;20.90;99.90;;;;;;5093357;28;20162;-67
2022/06/06 11:49:56;;;;;;;2.15;1.38;;;20.90;99.90;;;;;;5093288;28;20158;-67
2022/06/06 11:52:28;;;;;;;4.50;1.50;;;20.60;99.90;;;;;;5095222;28;20268;-68
2022/06/06 11:55:12;;;;;;;1.52;1.42;;;20.20;99.90;;;;;;5097601;28;20175;-67
2022/06/06 11:57:56;;;;;;;4.30;1.60;;;20.20;99.90;;;;;;5095873;28;20161;-67
2022/06/06 12:01:15;;;;;;;2.10;1.30;;;20.20;99.90;;;;;;5096815;28;20196;-67
2022/06/06 12:03:56;;;;;;;2.97;1.52;;;20.20;99.90;;;;;;5074823;28;20185;-66
2022/06/06 12:06:59;;;;;;;1.88;1.63;;;20.20;99.90;;;;;;5096870;28;20187;-67
2022/06/06 12:09:59;;;;;;;2.13;1.70;;;20.10;99.90;;;;;;5096849;28;20263;-67
2022/06/06 12:13:02;;;;;;;1.88;1.25;;;20.20;99.90;;;;;;5096845;28;20203;-67
2022/06/06 12:15:54;;;;;;;1.90;1.38;;;20.30;99.90;;;;;;5096508;28;20188;-67
2022/06/06 12:18:41;;;;;;;1.50;1.40;;;20.30;99.90;;;;;;5095624;28;20177;-67
2022/06/06 12:21:44;;;;;;;3.40;1.17;;;20.60;99.90;;;;;;5095342;28;20205;-66
2022/06/06 12:24:38;;;;;;;2.05;1.30;;;21.00;99.90;;;;;;5096615;28;20177;-67
2022/06/06 12:27:14;;;;;;;2.45;1.30;;;21.30;99.90;;;;;;5096588;28;20173;-67
2022/06/06 12:30:10;;;;;;;3.28;1.33;;;21.90;99.90;;;;;;5095264;28;20214;-67
2022/06/06 12:32:47;;;;;;;1.98;1.40;;;22.30;99.90;;;;;;5096359;28;20665;-67
2022/06/06 12:35:19;;;;;;;1.40;1.30;;;22.50;99.90;;;;;;5095423;28;20172;-66
2022/06/06 12:38:03;;;;;;;4.35;1.45;;;22.60;99.90;;;;;;5095011;28;20222;-66
2022/06/06 12:40:47;;;;;;;2.92;1.63;;;22.30;99.90;;;;;;5096539;28;20185;-65
2022/06/06 12:43:32;;;;;;;2.83;1.50;;;21.50;99.90;;;;;;5096682;28;20172;-65
2022/06/06 12:46:28;;;;;;;4.32;1.77;;;20.70;99.90;;;;;;5095955;28;20161;-64
2022/06/06 12:49:15;;;;;;;1.80;1.65;;;19.50;99.90;;;;;;5096258;28;20714;-64
2022/06/06 12:51:55;;;;;;;4.25;1.77;;;19.00;99.90;;;;;;5096193;28;20197;-64
2022/06/06 12:54:30;;;;;;;6.82;1.60;;;19.20;99.90;;;;;;5094956;28;20589;-65
2022/06/06 12:57:00;;;;;;;6.47;1.33;;;19.40;99.90;;;;;;5095012;28;20180;-66
2022/06/06 12:59:25;;;;;;;1.92;1.45;;;20.00;99.90;;;;;;5096532;28;20206;-65
2022/06/06 13:01:57;;;;;;;1.40;1.30;;;20.50;99.90;;;;;;5096033;28;20185;-65
2022/06/06 13:04:38;;;;;;;1.38;1.27;;;20.80;99.90;;;;;;5095935;28;20260;-66
2022/06/06 13:07:29;;;;;;;1.95;1.20;;;21.20;99.90;;;;;;5096207;28;20253;-69
2022/06/06 13:10:07;;;;;;;3.35;1.55;;;21.80;99.90;;;;;;5075795;28;20651;-67
2022/06/06 13:13:02;;;;;;;2.65;1.40;;;21.50;99.90;;;;;;5075386;28;20228;-67
2022/06/06 13:15:58;;;;;;;2.05;1.38;;;21.20;99.90;;;;;;5074267;28;20741;-68
2022/06/06 13:18:52;;;;;;;3.75;1.40;;;21.70;99.90;;;;;;5075698;28;20627;-68
2022/06/06 13:21:39;;;;;;;1.40;1.30;;;22.60;99.90;;;;;;5075204;28;20731;-68
2022/06/06 13:24:28;;;;;;;1.42;1.30;;;23.40;99.90;;;;;;5075445;28;20158;-68
2022/06/06 13:27:12;;;;;;;5.63;1.20;;;23.80;99.90;;;;;;5075200;28;20190;-68
2022/06/06 13:29:38;;;;;;;2.72;1.35;;;23.70;99.90;;;;;;5074850;28;20162;-68
2022/06/06 13:32:27;;;;;;;1.63;1.20;;;23.70;99.90;;;;;;5074883;28;20232;-68
2022/06/06 13:35:06;;;;;;;2.20;1.40;;;23.60;99.90;;;;;;5073708;28;20634;-68
2022/06/06 13:37:42;;;;;;;2.00;1.48;;;24.00;99.90;;;;;;5075430;28;20166;-68
2022/06/06 13:40:25;;;;;;;1.33;1.02;;;24.00;99.90;;;;;;5073595;28;20201;-67
2022/06/06 13:43:18;;;;;;;5.70;1.30;;;23.60;99.90;;;;;;5075038;28;20166;-68
2022/06/06 13:45:59;;;;;;;1.73;1.63;;;22.90;99.90;;;;;;5075002;28;20167;-67
2022/06/06 13:48:45;;;;;;;2.80;1.38;;;22.70;99.90;;;;;;5074942;28;20246;-67
2022/06/06 13:51:57;;;;;;;4.38;1.67;;;22.60;99.90;;;;;;5073289;28;20193;-68
2022/06/06 13:54:33;;;;;;;1.65;1.45;;;22.40;99.90;;;;;;5074568;28;20146;-67
2022/06/06 13:57:26;;;;;;;3.42;1.50;;;23.30;99.90;;;;;;5074471;28;20257;-67
2022/06/06 14:00:15;;;;;;;2.53;1.45;;;23.90;99.90;;;;;;5074413;28;20612;-67
2022/06/06 14:02:58;;;;;;;6.10;1.90;;;23.60;99.90;;;;;;5073123;28;20674;-67
2022/06/06 14:05:32;;;;;;;3.08;2.15;;;22.90;99.90;;;;;;5073099;28;20174;-68
2022/06/06 14:08:13;;;;;;;1.73;1.60;;;22.70;99.90;;;;;;5074187;28;20208;-68
2022/06/06 14:10:54;;;;;;;1.55;1.42;;;22.40;99.90;;;;;;5074181;28;20634;-68